»·PEaware :: FFT180 KRNO-KSLC

FFT180 :: KRNO-KSLC

FLIGHT INFORMATION

Flight Status: Arrived
Operator:
Frontier Airlines
More flights by this operator :: More flights under this callsign
Pilot: Etienne B. (28927)
Aircraft: AIRBUS A320
(A320)
More flights by this aircraft type
Origin: KRNO Reno/Tahoe Intl
United States
Destination: KSLC Salt Lake City Intl
United States
More flights between these airports :: More routes between these airports
Route: +ZEFFR6 BLKJK LLC BAM J154 BVL WAATS5
File this flight plan on PilotEdge
Remarks: RMK / SIMBRIEF
Altitude:
(Current/Filed)
35,000ft
Speed:
(Current/Filed)
444kts
Departed: 17-Apr-20 03:55 PM
Arrived: 17-Apr-20 05:01 PM
Distance/Time
Traveled:
365nm/1:06
Distance/Time
To Go:
Arrived

Flight Plot

Page will automatically refresh every two minutes.

Flight plan parsing failed; only flown route is shown


Map Options




Map Legend


Flown Route
Filed Route
Departure Airport
Arrival Airport
Navaid (VOR, NDB)
Fix

Horizontal Profiles

Position Reports

Time Latitude Longitude Heading Altitude Ground
Speed
17-Apr-20 15:24 39.504419 -119.774246 16 4424ft 0kts
17-Apr-20 15:25 39.504419 -119.774246 16 4424ft 0kts
17-Apr-20 15:26 39.504419 -119.774246 16 4424ft 0kts
17-Apr-20 15:27 39.504419 -119.774246 16 4424ft 0kts
17-Apr-20 15:28 39.504419 -119.774246 16 4424ft 0kts
17-Apr-20 15:29 39.504419 -119.774246 16 4424ft 0kts
17-Apr-20 15:31 39.504419 -119.774246 16 4424ft 0kts
17-Apr-20 15:32 39.504419 -119.774246 16 4424ft 0kts
17-Apr-20 15:33 39.504419 -119.774246 16 4424ft 0kts
17-Apr-20 15:34 39.504419 -119.774246 16 4424ft 0kts
17-Apr-20 15:35 39.504419 -119.774246 16 4424ft 0kts
17-Apr-20 15:36 39.504419 -119.774246 16 4424ft 0kts
17-Apr-20 15:37 39.504418 -119.774246 16 4424ft 0kts
17-Apr-20 15:38 39.504418 -119.774246 16 4424ft 0kts
17-Apr-20 15:39 39.504418 -119.774246 16 4424ft 0kts
17-Apr-20 15:40 39.504418 -119.774246 16 4424ft 0kts
17-Apr-20 15:41 39.504418 -119.774246 16 4424ft 0kts
17-Apr-20 15:42 39.504418 -119.774246 16 4424ft 0kts
17-Apr-20 15:43 39.504418 -119.774246 16 4424ft 0kts
17-Apr-20 15:44 39.504357 -119.774267 0 4424ft 2kts
17-Apr-20 15:45 39.503761 -119.774303 3 4424ft 2kts
17-Apr-20 15:46 39.503744 -119.773837 91 4424ft 1kts
17-Apr-20 15:47 39.503744 -119.773817 92 4424ft 0kts
17-Apr-20 15:47 39.503744 -119.773817 91 4424ft 0kts
17-Apr-20 15:49 39.503722 -119.772844 90 4424ft 2kts
17-Apr-20 15:50 39.504155 -119.771527 6 4424ft 7kts
17-Apr-20 15:51 39.507966 -119.771514 359 4424ft 17kts
17-Apr-20 15:51 39.511775 -119.771503 0 4424ft 15kts
17-Apr-20 15:52 39.513754 -119.770582 90 4424ft 0kts
17-Apr-20 15:54 39.513752 -119.770265 90 4424ft 5kts
17-Apr-20 15:54 39.511565 -119.769236 180 4424ft 55kts
17-Apr-20 15:55 39.467255 -119.769754 180 5740ft 204kts
17-Apr-20 15:56 39.405692 -119.771408 181 8458ft 244kts
17-Apr-20 15:57 39.334015 -119.771137 171 11385ft 274kts
17-Apr-20 15:58 39.287316 -119.700704 106 14359ft 293kts
17-Apr-20 15:59 39.293524 -119.592695 51 16214ft 341kts
17-Apr-20 16:00 39.364125 -119.497434 43 17552ft 387kts
17-Apr-20 16:01 39.444195 -119.400504 42 19551ft 401kts
17-Apr-20 16:02 39.527225 -119.300725 42 21400ft 413kts
17-Apr-20 16:03 39.612904 -119.198275 42 23089ft 424kts
17-Apr-20 16:04 39.700281 -119.093363 42 24616ft 434kts
17-Apr-20 16:05 39.789616 -118.985703 42 26048ft 442kts
17-Apr-20 16:06 39.880766 -118.875438 41 27329ft 451kts
17-Apr-20 16:07 39.973026 -118.763403 41 28477ft 460kts
17-Apr-20 16:08 40.067399 -118.648139 41 29530ft 468kts
17-Apr-20 16:09 40.143705 -118.511295 69 30446ft 478kts
17-Apr-20 16:10 40.187944 -118.350244 69 31559ft 478kts
17-Apr-20 16:11 40.232701 -118.186802 70 32672ft 477kts
17-Apr-20 16:12 40.277002 -118.023908 70 33705ft 475kts
17-Apr-20 16:13 40.321119 -117.860606 70 34674ft 473kts
17-Apr-20 16:14 40.364668 -117.698368 70 35022ft 471kts
17-Apr-20 16:15 40.407936 -117.536109 70 35022ft 472kts
17-Apr-20 16:16 40.450884 -117.373948 70 35014ft 472kts
17-Apr-20 16:17 40.493835 -117.210712 71 35016ft 472kts
17-Apr-20 16:18 40.536361 -117.048026 71 35019ft 472kts
17-Apr-20 16:19 40.571588 -116.883172 85 35027ft 470kts
17-Apr-20 16:20 40.582217 -116.712077 86 35020ft 468kts
17-Apr-20 16:21 40.592598 -116.541673 86 35001ft 468kts
17-Apr-20 16:22 40.602738 -116.370916 86 35004ft 468kts
17-Apr-20 16:23 40.612597 -116.200407 86 35025ft 467kts
17-Apr-20 16:24 40.622207 -116.030000 86 35031ft 467kts
17-Apr-20 16:25 40.631575 -115.859438 86 35033ft 468kts
17-Apr-20 16:26 40.640682 -115.689041 86 35035ft 468kts
17-Apr-20 16:27 40.649561 -115.518156 86 35038ft 468kts
17-Apr-20 16:28 40.658193 -115.347150 87 35035ft 467kts
17-Apr-20 16:29 40.666520 -115.177121 87 33601ft 471kts
17-Apr-20 16:30 40.674667 -115.005944 87 32611ft 463kts
17-Apr-20 16:31 40.682390 -114.837996 87 31652ft 457kts
17-Apr-20 16:32 40.689758 -114.672422 88 30728ft 448kts
17-Apr-20 16:33 40.696729 -114.510480 88 29764ft 441kts
17-Apr-20 16:34 40.703413 -114.350027 88 28813ft 434kts
17-Apr-20 16:35 40.709728 -114.193291 88 27852ft 427kts
17-Apr-20 16:36 40.715763 -114.038485 88 26879ft 420kts
17-Apr-20 16:37 40.721525 -113.885771 88 25776ft 410kts
17-Apr-20 16:38 40.726210 -113.737098 92 24005ft 398kts
17-Apr-20 16:39 40.725995 -113.593188 91 23177ft 394kts
17-Apr-20 16:40 40.725697 -113.448812 91 22353ft 389kts
17-Apr-20 16:41 40.725236 -113.308229 92 21553ft 383kts
17-Apr-20 16:42 40.724614 -113.168819 92 20756ft 378kts
17-Apr-20 16:43 40.723834 -113.031090 92 19967ft 373kts
17-Apr-20 16:44 40.722893 -112.894524 92 19190ft 370kts
17-Apr-20 16:45 40.721804 -112.759266 92 18422ft 367kts
17-Apr-20 16:46 40.720581 -112.625859 92 17654ft 359kts
17-Apr-20 16:47 40.718818 -112.494846 94 17046ft 359kts
17-Apr-20 16:48 40.714672 -112.363396 94 17043ft 357kts
17-Apr-20 16:49 40.712020 -112.232580 89 17043ft 358kts
17-Apr-20 16:50 40.745001 -112.115369 31 17050ft 365kts
17-Apr-20 16:51 40.841629 -112.101798 352 17045ft 358kts
17-Apr-20 16:52 40.939482 -112.114086 353 15378ft 347kts
17-Apr-20 16:53 41.032568 -112.117354 21 12404ft 332kts
17-Apr-20 16:54 41.069398 -112.019484 92 9676ft 308kts
17-Apr-20 16:55 41.030036 -111.938878 177 7481ft 281kts
17-Apr-20 16:56 40.957550 -111.971702 210 7074ft 258kts
17-Apr-20 16:57 40.897713 -111.987761 170 6226ft 194kts
17-Apr-20 16:58 40.847831 -111.982051 173 5051ft 157kts
17-Apr-20 16:59 40.806438 -111.976712 175 4257ft 146kts
17-Apr-20 17:00 40.790905 -111.976048 199 4236ft 0kts
17-Apr-20 17:01 40.789876 -111.976623 208 4236ft 7kts
17-Apr-20 17:02 40.788234 -111.976896 175 4236ft 8kts
17-Apr-20 17:03 40.786328 -111.977620 278 4236ft 0kts
17-Apr-20 17:04 40.786817 -111.978379 312 4236ft 0kts

Navigation Log

Ident Type
Flight plan parsing failed, navigation log unavailable